Eek, AK

9:05 PM AKDT on October 01, 2014 (GMT -0800)
Quinhagak | Change Station
CLOSE
Current Station
Airport
Location: Quinhagak|Kwinhagak Airport,
Elevation: 43 ft
Nearby Weather Stations

Elev 43 ft 59.76 °N, 161.85 °W | Updated 9 minutes ago

Clear
Clear
43 °F
Feels Like 36 °F
N
15
Wind Variable Wind from North

Today
High -- | Low -- °F
--% Chance of Precip.
Yesterday
High -- | Low -- °F
Precip. -- in
8:54 AM 8:19 PM
First Quarter, 55% visible
Pressure 30.09 in
Visibility 10.0 miles
Clouds Clear
Windchill 36 °F
Dew Point 35 °F
Humidity 74%
Rainfall 0.00 in
Snow Depth 2 in , 2 in , 1 in
UV 0 out of 12
Pollen Not available.
Air Quality Not available.
Flu Activity Not available.
METAR PAQH 020456Z AUTO 35013KT 10SM CLR 06/02 A3009 RMK AO2 SLP190 T00610017

More Conditions Fewer Conditions

Pressure 30.09 in
Visibility 10.0 miles
Clouds Clear
Windchill 36 °F
Dew Point 35 °F
Humidity 74%
Rainfall 0.00 in
Snow Depth 2 in , 2 in , 1 in
UV 0 out of 12
Pollen Not available.
Air Quality Not available.
Flu Activity Not available.
METAR PAQH 020456Z AUTO 35013KT 10SM CLR 06/02 A3009 RMK AO2 SLP190 T00610017

More Conditions Fewer Conditions

10-Day Weather Forecast

Almanac

Astronomy

Oct. 01, 2014 Rise Set
Actual Time 8:54 AM AKDT 8:19 PM AKDT
Civil Twilight 8:12 AM AKDT 9:00 PM AKDT
Nautical Twilight 7:24 AM AKDT 9:49 PM AKDT
Astronomical Twilight 6:33 AM AKDT 10:39 PM AKDT
Moon 5:09 PM AKDT (10/1) No Moon Set
Length of Visible Light 12h 48m
Length of Day
11h 25m
Tomorrow will be 5m 21s shorter.
First Quarter, 55% of the Moon is Illuminated
Oct 2
First Quarter
Oct 8
Full
Oct 15
Last Quarter
Oct 23
New
Oct 30
First Quarter

Yesterday's Extremes

State Highs State Lows

Community

WunderPhotos

Upload Photos

1,758,193 photos uploaded!

Nearby

Snow Depth

Station Depth Elevation
Indian Pass 2 in 2300 ft
Rocky Point 2 in 500 ft
Point Mackenzie 1 in 200 ft
Mcneil Canyon 1 in 1320 ft
Susitna Valley High 2 in 375 ft

Earthquake Activity

City Distance Mag. Time & Date
No recent earthquake activity has been reported nearby.
Minimum magnitude displayed is 2.5.

Coastal Water Temperatures

Place Temperature
No Stations Reporting

Nearby Weather Stations